Time;durP1;ratioP1;P1;durP2;ratioP2;P2;SDS_P1;SDS_P2;PMS_P1;PMS_P2;Temp;Humidity;BMP_temperature;BMP_pressure;BME280_temperature;BME280_humidity;BME280_pressure;Samples;Min_cycle;Max_cycle;Signal;HPM_P1;HPM_P2
2022/09/21 00:01:15;;;;;;;1.63;1.52;;;;;;;11.08;59.89;95034.59;5076563;28;20216;-70
2022/09/21 00:03:44;;;;;;;1.85;1.75;;;;;;;11.11;60.27;95035.03;5077157;28;20181;-70
2022/09/21 00:06:13;;;;;;;1.60;1.50;;;;;;;11.07;60.02;95033.00;5076426;28;20200;-70
2022/09/21 00:08:40;;;;;;;1.83;1.73;;;;;;;11.07;59.87;95027.50;5076561;28;20205;-69
2022/09/21 00:11:07;;;;;;;2.38;1.60;;;;;;;11.02;61.43;95029.69;5076337;28;20205;-70
2022/09/21 00:13:36;;;;;;;1.98;1.67;;;;;;;10.92;61.05;95028.25;5075810;28;20200;-69
2022/09/21 00:16:05;;;;;;;2.67;1.88;;;;;;;10.82;61.39;95026.88;5076115;28;20205;-70
2022/09/21 00:18:32;;;;;;;1.98;1.88;;;;;;;10.77;61.56;95034.59;5075534;28;20696;-70
2022/09/21 00:21:01;;;;;;;2.17;2.05;;;;;;;10.73;61.97;95030.94;5076774;28;20228;-69
2022/09/21 00:23:28;;;;;;;2.60;2.10;;;;;;;10.71;61.80;95033.25;5076461;28;20535;-69
2022/09/21 00:26:05;;;;;;;2.30;2.20;;;;;;;10.69;62.02;95033.59;5075757;28;20651;-69
2022/09/21 00:28:33;;;;;;;2.60;2.40;;;;;;;10.65;62.20;95029.97;5075870;28;20181;-70
2022/09/21 00:31:02;;;;;;;2.83;2.63;;;;;;;10.60;62.16;95031.03;5076607;28;20208;-70
2022/09/21 00:33:29;;;;;;;2.78;2.28;;;;;;;10.53;62.90;95027.25;5075936;28;20197;-70
2022/09/21 00:35:56;;;;;;;3.22;2.92;;;;;;;10.44;62.56;95034.91;5076798;28;20204;-70
2022/09/21 00:38:24;;;;;;;3.10;2.80;;;;;;;10.33;62.45;95032.66;5075964;28;20602;-70
2022/09/21 00:40:51;;;;;;;2.65;2.45;;;;;;;10.31;63.01;95037.72;5075359;28;20199;-70
2022/09/21 00:43:17;;;;;;;2.72;2.53;;;;;;;10.30;62.79;95041.63;5076070;28;20196;-70
2022/09/21 00:45:47;;;;;;;2.78;2.58;;;;;;;10.26;62.61;95031.66;5075348;28;20193;-69
2022/09/21 00:48:15;;;;;;;2.80;2.60;;;;;;;10.20;63.45;95031.06;5075886;28;20593;-69
2022/09/21 00:50:44;;;;;;;2.72;2.50;;;;;;;10.16;63.48;95021.91;5075363;28;20213;-69
2022/09/21 00:53:11;;;;;;;3.90;2.70;;;;;;;10.11;63.35;95031.22;5075153;28;20182;-69
2022/09/21 00:55:41;;;;;;;4.45;2.80;;;;;;;10.03;63.70;95026.66;5075520;28;20197;-69
2022/09/21 00:58:12;;;;;;;4.15;3.10;;;;;;;10.04;63.51;95033.78;5076133;28;20185;-69
2022/09/21 01:00:39;;;;;;;3.28;2.97;;;;;;;10.01;63.52;95033.69;5075072;28;20200;-69
2022/09/21 01:03:07;;;;;;;3.38;2.88;;;;;;;9.93;63.49;95029.91;5076044;28;20261;-69
2022/09/21 01:05:34;;;;;;;3.95;3.00;;;;;;;9.86;63.85;95027.75;5075756;28;20188;-70
2022/09/21 01:08:02;;;;;;;3.22;2.90;;;;;;;9.81;64.12;95030.75;5074971;28;20201;-69
2022/09/21 01:10:30;;;;;;;2.95;2.75;;;;;;;9.84;63.94;95032.81;5075776;28;20201;-70
2022/09/21 01:13:06;;;;;;;2.33;2.22;;;;;;;9.88;63.29;95039.25;5075526;28;20189;-70
2022/09/21 01:15:39;;;;;;;2.45;2.15;;;;;;;9.89;62.94;95032.56;5074557;28;20239;-69
2022/09/21 01:18:12;;;;;;;3.25;2.10;;;;;;;9.88;62.50;95038.44;5075784;28;20193;-70
2022/09/21 01:21:15;;;;;;;2.00;1.85;;;;;;;9.87;62.43;95039.56;5075485;28;20626;-70
2022/09/21 01:24:09;;;;;;;2.40;1.75;;;;;;;9.85;62.60;95028.13;5075607;28;20189;-70
2022/09/21 01:26:45;;;;;;;1.80;1.70;;;;;;;9.80;62.27;95020.91;5074669;28;20223;-69
2022/09/21 01:29:20;;;;;;;1.70;1.60;;;;;;;9.76;62.16;95017.22;5075734;28;20200;-70
2022/09/21 01:31:50;;;;;;;1.90;1.80;;;;;;;9.73;62.16;95015.19;5075426;28;20211;-70
2022/09/21 01:34:24;;;;;;;1.70;1.60;;;;;;;9.68;62.42;95015.41;5074606;28;20209;-70
2022/09/21 01:36:54;;;;;;;2.20;2.00;;;;;;;9.70;62.65;95015.09;5075677;28;20200;-69
2022/09/21 01:39:21;;;;;;;2.10;1.90;;;;;;;9.68;62.46;95009.91;5074964;28;20201;-70
2022/09/21 01:41:50;;;;;;;2.00;1.90;;;;;;;9.67;62.13;95007.50;5075047;28;20609;-70
2022/09/21 01:44:21;;;;;;;2.45;1.80;;;;;;;9.62;62.89;95009.38;5075245;28;20189;-70
2022/09/21 01:46:49;;;;;;;2.03;1.92;;;;;;;9.59;62.88;95010.06;5075030;28;20605;-70
2022/09/21 01:49:18;;;;;;;1.80;1.70;;;;;;;9.55;62.44;95011.06;5075319;28;20197;-69
2022/09/21 01:51:48;;;;;;;2.13;1.73;;;;;;;9.52;62.43;95017.31;5074539;28;20220;-70
2022/09/21 01:54:20;;;;;;;1.95;1.80;;;;;;;9.54;62.66;95015.00;5075238;28;20177;-70
2022/09/21 01:56:50;;;;;;;2.63;2.20;;;;;;;9.51;62.89;95010.16;5075313;28;20251;-70
2022/09/21 01:59:22;;;;;;;3.50;2.22;;;;;;;9.42;63.11;95006.75;5074900;28;20620;-70
2022/09/21 02:01:52;;;;;;;2.20;1.90;;;;;;;9.37;63.50;95014.13;5074816;28;20185;-69
2022/09/21 02:04:19;;;;;;;2.80;2.22;;;;;;;9.36;63.51;95011.69;5074180;28;20204;-70
2022/09/21 02:06:46;;;;;;;2.45;2.25;;;;;;;9.29;63.82;95006.75;5075095;28;20193;-70
2022/09/21 02:09:14;;;;;;;2.28;2.08;;;;;;;9.23;64.01;95012.88;5074520;28;20205;-70
2022/09/21 02:11:42;;;;;;;2.33;2.13;;;;;;;9.18;63.97;95016.63;5074337;28;20224;-70
2022/09/21 02:14:10;;;;;;;2.30;1.90;;;;;;;9.17;64.36;95015.03;5074933;28;20268;-70
2022/09/21 02:16:42;;;;;;;2.97;2.70;;;;;;;9.16;64.20;95018.94;5075038;28;20177;-70
2022/09/21 02:19:14;;;;;;;2.67;2.50;;;;;;;9.13;64.33;95014.94;5075077;28;20182;-70
2022/09/21 02:21:50;;;;;;;2.95;2.75;;;;;;;9.13;64.03;95023.19;5074431;28;20197;-70
2022/09/21 02:24:25;;;;;;;2.88;2.65;;;;;;;9.13;63.73;95017.69;5074089;28;20195;-70
2022/09/21 02:26:55;;;;;;;3.03;2.80;;;;;;;9.16;63.78;95021.69;5078962;28;20181;-70
2022/09/21 02:29:25;;;;;;;3.28;2.70;;;;;;;9.18;63.61;95029.59;5078131;28;20207;-70
2022/09/21 02:31:55;;;;;;;3.97;2.72;;;;;;;9.14;63.83;95027.53;5078879;28;20220;-70
2022/09/21 02:34:28;;;;;;;2.80;2.20;;;;;;;9.15;63.95;95029.16;5078625;28;20193;-70
2022/09/21 02:36:59;;;;;;;2.42;2.15;;;;;;;9.15;63.89;95023.66;5077577;28;20208;-70
2022/09/21 02:39:31;;;;;;;3.30;2.45;;;;;;;9.16;64.11;95028.00;5078451;28;20197;-70
2022/09/21 02:42:03;;;;;;;2.20;2.10;;;;;;;9.18;63.57;95024.09;5078373;28;20596;-70
2022/09/21 02:44:33;;;;;;;2.53;2.33;;;;;;;9.12;64.00;95027.09;5078467;28;20177;-70
2022/09/21 02:47:04;;;;;;;2.35;2.15;;;;;;;9.04;64.10;95025.25;5077436;28;20674;-69
2022/09/21 02:49:34;;;;;;;2.70;2.50;;;;;;;8.97;64.62;95026.97;5077992;28;20201;-69
2022/09/21 02:52:05;;;;;;;3.65;2.47;;;;;;;8.88;64.49;95025.13;5078362;28;20641;-69
2022/09/21 02:54:33;;;;;;;3.60;2.55;;;;;;;8.87;64.46;95029.03;5078235;28;20185;-69
2022/09/21 02:57:00;;;;;;;4.22;2.63;;;;;;;8.80;64.98;95026.03;5078488;28;20181;-69
2022/09/21 02:59:28;;;;;;;2.70;2.50;;;;;;;8.78;65.01;95025.56;5077887;28;20213;-69
2022/09/21 03:01:55;;;;;;;2.63;2.42;;;;;;;8.77;65.03;95018.47;5078278;28;20185;-69
2022/09/21 03:04:24;;;;;;;2.70;2.40;;;;;;;8.80;65.05;95019.75;5076937;28;20614;-69
2022/09/21 03:06:51;;;;;;;3.45;2.75;;;;;;;8.81;65.06;95024.09;5076973;28;20254;-69
2022/09/21 03:09:23;;;;;;;2.75;2.40;;;;;;;8.84;65.17;95026.97;5077159;28;20296;-69
2022/09/21 03:11:49;;;;;;;2.63;2.42;;;;;;;8.88;64.94;95038.09;5077262;28;20217;-69
2022/09/21 03:14:18;;;;;;;2.92;2.72;;;;;;;8.86;65.06;95030.19;5077040;28;20228;-70
2022/09/21 03:16:45;;;;;;;3.53;3.20;;;;;;;8.80;64.73;95034.28;5078273;28;20182;-69
2022/09/21 03:19:12;;;;;;;4.32;3.55;;;;;;;8.74;65.12;95035.66;5077727;28;20648;-69
2022/09/21 03:21:41;;;;;;;4.38;2.78;;;;;;;8.66;65.06;95029.13;5077311;28;20205;-69
2022/09/21 03:24:08;;;;;;;3.70;3.05;;;;;;;8.61;65.26;95026.59;5077153;28;20542;-70
2022/09/21 03:26:35;;;;;;;3.40;3.05;;;;;;;8.58;64.91;95034.72;5077135;28;20197;-70
2022/09/21 03:29:05;;;;;;;5.15;2.83;;;;;;;8.56;65.34;95037.00;5077471;28;20507;-69
2022/09/21 03:31:33;;;;;;;4.05;3.00;;;;;;;8.55;64.99;95038.16;5076962;28;20235;-70
2022/09/21 03:34:00;;;;;;;3.97;2.72;;;;;;;8.55;65.61;95036.22;5076793;28;20629;-69
2022/09/21 03:36:26;;;;;;;3.30;2.60;;;;;;;8.56;65.22;95037.81;5077980;28;20204;-69
2022/09/21 03:38:55;;;;;;;4.50;2.72;;;;;;;8.57;65.07;95036.69;5077307;28;20242;-69
2022/09/21 03:41:21;;;;;;;3.38;2.50;;;;;;;8.57;65.12;95031.19;5077506;28;20213;-69
2022/09/21 03:43:48;;;;;;;3.35;2.70;;;;;;;8.58;65.43;95041.03;5077658;28;20189;-69
2022/09/21 03:46:15;;;;;;;4.80;3.20;;;;;;;8.58;65.40;95041.03;5077484;28;20193;-69
2022/09/21 03:48:46;;;;;;;4.82;3.00;;;;;;;8.57;65.56;95044.09;5077600;28;20178;-69
2022/09/21 03:51:13;;;;;;;4.18;2.70;;;;;;;8.55;65.63;95043.66;5077171;28;20652;-69
2022/09/21 03:53:40;;;;;;;3.00;2.80;;;;;;;8.54;65.63;95044.81;5076791;28;20197;-70
2022/09/21 03:56:08;;;;;;;5.47;2.78;;;;;;;8.50;65.85;95052.94;5076554;28;20208;-69
2022/09/21 03:58:35;;;;;;;5.00;3.05;;;;;;;8.47;65.70;95047.31;5075936;28;20201;-69
2022/09/21 04:01:02;;;;;;;6.10;3.05;;;;;;;8.42;65.36;95043.63;5077785;28;20178;-69
2022/09/21 04:03:29;;;;;;;3.30;3.00;;;;;;;8.38;65.57;95050.94;5076400;28;20201;-69
2022/09/21 04:05:56;;;;;;;4.28;2.90;;;;;;;8.38;65.78;95048.19;5076295;28;20254;-70
2022/09/21 04:08:22;;;;;;;3.58;3.22;;;;;;;8.44;65.80;95046.81;5076122;28;20197;-69
2022/09/21 04:10:49;;;;;;;6.45;3.30;;;;;;;8.52;66.07;95045.13;5076369;28;20205;-69
2022/09/21 04:13:17;;;;;;;4.25;3.63;;;;;;;8.54;65.73;95045.59;5077127;28;20189;-69
2022/09/21 04:15:44;;;;;;;7.05;4.70;;;;;;;8.55;65.81;95049.94;5076748;28;20649;-69
2022/09/21 04:18:12;;;;;;;9.25;4.95;;;;;;;8.57;65.76;95053.19;5075828;28;20193;-69
2022/09/21 04:20:40;;;;;;;7.97;4.22;;;;;;;8.59;66.01;95048.13;5076797;28;20199;-69
2022/09/21 04:23:07;;;;;;;5.75;4.25;;;;;;;8.61;65.97;95045.84;5076323;28;20204;-69
2022/09/21 04:25:34;;;;;;;7.07;4.20;;;;;;;8.59;65.97;95047.31;5076200;28;20250;-69
2022/09/21 04:28:01;;;;;;;8.85;4.20;;;;;;;8.57;66.24;95047.69;5076573;28;20188;-69
2022/09/21 04:30:29;;;;;;;5.47;4.40;;;;;;;8.58;66.02;95046.53;5076190;28;20605;-69
2022/09/21 04:32:56;;;;;;;4.50;4.00;;;;;;;8.62;65.63;95047.44;5076187;28;20253;-69
2022/09/21 04:35:23;;;;;;;8.82;4.72;;;;;;;8.66;66.04;95048.38;5076735;28;20212;-69
2022/09/21 04:37:50;;;;;;;7.80;5.03;;;;;;;8.64;66.18;95044.34;5075569;28;20201;-69
2022/09/21 04:40:16;;;;;;;10.80;5.15;;;;;;;8.62;66.38;95046.66;5075514;28;20204;-69
2022/09/21 04:42:43;;;;;;;9.55;5.72;;;;;;;8.62;66.52;95050.19;5076207;28;20197;-69
2022/09/21 04:45:11;;;;;;;12.80;5.93;;;;;;;8.62;66.18;95049.41;5075030;28;20196;-69
2022/09/21 04:47:39;;;;;;;12.93;6.15;;;;;;;8.60;66.31;95052.47;5075643;28;20353;-69
2022/09/21 04:50:07;;;;;;;8.40;5.50;;;;;;;8.62;66.48;95052.94;5075366;28;20208;-69
2022/09/21 04:52:34;;;;;;;9.65;5.18;;;;;;;8.66;66.59;95048.38;5074874;28;20251;-69
2022/09/21 04:55:00;;;;;;;6.95;4.88;;;;;;;8.70;66.54;95047.69;5075527;28;20204;-70
2022/09/21 04:57:27;;;;;;;6.30;4.95;;;;;;;8.76;66.72;95047.13;5075853;28;20185;-70
2022/09/21 04:59:54;;;;;;;8.05;4.72;;;;;;;8.85;66.71;95061.56;5075158;28;20330;-70
2022/09/21 05:02:21;;;;;;;11.40;4.93;;;;;;;8.90;66.77;95053.09;5075929;28;20181;-71
2022/09/21 05:04:49;;;;;;;8.15;5.43;;;;;;;8.93;67.06;95054.34;5075299;28;20423;-70
2022/09/21 05:07:16;;;;;;;6.13;3.72;;;;;;;8.94;67.00;95061.47;5075908;28;20242;-70
2022/09/21 05:12:27;;;;;;;6.10;3.10;;;;;;;9.11;66.72;95057.69;5075255;28;20201;-70
2022/09/21 05:14:54;;;;;;;6.03;3.83;;;;;;;9.18;66.49;95054.38;5074466;28;20241;-70
2022/09/21 05:17:22;;;;;;;3.80;3.20;;;;;;;9.25;66.65;95054.59;5075853;28;20291;-70
2022/09/21 05:19:51;;;;;;;4.22;3.28;;;;;;;9.32;66.60;95057.56;5075422;28;20613;-70
2022/09/21 05:22:18;;;;;;;5.93;3.35;;;;;;;9.39;66.46;95055.84;5075285;28;20181;-70
2022/09/21 05:24:44;;;;;;;5.13;2.95;;;;;;;9.46;65.99;95057.22;5075859;28;20250;-70
2022/09/21 05:27:11;;;;;;;4.13;3.50;;;;;;;9.52;65.91;95056.66;5075507;28;20636;-70
2022/09/21 05:29:39;;;;;;;4.28;3.30;;;;;;;9.60;65.27;95060.41;5075608;28;20254;-70
2022/09/21 05:32:08;;;;;;;7.18;3.72;;;;;;;9.66;65.27;95056.28;5074692;28;20227;-70
2022/09/21 05:34:43;;;;;;;7.20;3.80;;;;;;;9.71;66.12;95064.28;5074656;28;20193;-71
2022/09/21 05:37:18;;;;;;;5.97;3.38;;;;;;;9.72;66.47;95070.59;5074756;28;20270;-71
2022/09/21 05:39:45;;;;;;;4.45;3.58;;;;;;;9.73;65.83;95064.75;5075589;28;20185;-71
2022/09/21 05:42:12;;;;;;;4.72;3.75;;;;;;;9.75;65.52;95059.69;5074792;28;20294;-71
2022/09/21 05:44:40;;;;;;;4.80;3.72;;;;;;;9.79;65.53;95066.09;5074479;28;20197;-70
2022/09/21 05:47:17;;;;;;;6.65;3.40;;;;;;;9.85;65.69;95066.69;5075636;28;20196;-70
2022/09/21 05:49:50;;;;;;;4.00;3.05;;;;;;;9.89;65.29;95068.38;5074580;28;20205;-70
2022/09/21 05:52:23;;;;;;;3.47;2.50;;;;;;;9.93;65.09;95057.47;5075206;28;20205;-70
2022/09/21 05:55:00;;;;;;;2.80;2.50;;;;;;;9.98;64.75;95048.94;5075299;28;20208;-70
2022/09/21 05:57:37;;;;;;;2.75;2.55;;;;;;;10.03;64.87;95054.22;5075048;28;20196;-70
2022/09/21 06:00:11;;;;;;;3.00;2.80;;;;;;;10.10;64.91;95062.69;5074514;28;20189;-70
2022/09/21 06:02:54;;;;;;;3.97;2.97;;;;;;;10.17;65.25;95058.53;5074312;28;20203;-70
2022/09/21 06:05:22;;;;;;;3.80;2.72;;;;;;;10.23;65.30;95057.94;5074159;28;20247;-71
2022/09/21 06:07:50;;;;;;;4.15;3.40;;;;;;;10.27;65.04;95058.84;5074954;28;20180;-70
2022/09/21 06:10:17;;;;;;;3.65;2.85;;;;;;;10.33;65.04;95056.66;5075098;28;20201;-71
2022/09/21 06:12:44;;;;;;;3.15;2.67;;;;;;;10.40;64.88;95064.34;5075047;28;20213;-70
2022/09/21 06:15:14;;;;;;;3.92;2.40;;;;;;;10.46;64.93;95063.72;5074980;28;20224;-71
2022/09/21 06:17:41;;;;;;;3.20;2.53;;;;;;;10.49;64.98;95062.22;5074869;28;20270;-70
2022/09/21 06:20:09;;;;;;;5.15;2.90;;;;;;;10.50;64.97;95066.59;5074146;28;20193;-70
2022/09/21 06:22:36;;;;;;;3.05;2.55;;;;;;;10.50;64.81;95061.88;5074184;28;20201;-70
2022/09/21 06:25:07;;;;;;;2.70;2.50;;;;;;;10.53;64.92;95065.84;5074518;28;20204;-71
2022/09/21 06:27:34;;;;;;;2.90;2.60;;;;;;;10.54;64.79;95071.03;5074872;28;20216;-70
2022/09/21 06:30:01;;;;;;;2.70;2.47;;;;;;;10.58;65.12;95073.91;5073788;28;20209;-71
2022/09/21 06:32:28;;;;;;;2.40;2.20;;;;;;;10.64;64.59;95066.16;5074895;28;20278;-71
2022/09/21 06:34:54;;;;;;;2.97;2.45;;;;;;;10.67;64.46;95076.47;5074017;28;20201;-71
2022/09/21 06:37:21;;;;;;;3.28;2.97;;;;;;;10.72;64.83;95077.03;5074834;28;20269;-71
2022/09/21 06:39:48;;;;;;;4.13;2.95;;;;;;;10.76;64.29;95077.13;5073991;28;20212;-71
2022/09/21 06:42:16;;;;;;;2.78;2.58;;;;;;;10.78;64.38;95074.81;5074736;28;20208;-71
2022/09/21 06:44:43;;;;;;;2.83;2.60;;;;;;;10.81;64.14;95077.66;5074792;28;20192;-72
2022/09/21 06:47:10;;;;;;;2.97;2.53;;;;;;;10.84;63.85;95081.69;5073859;28;20201;-74
2022/09/21 06:49:37;;;;;;;3.00;2.50;;;;;;;10.88;64.08;95074.28;5074642;28;20201;-69
2022/09/21 06:52:04;;;;;;;3.03;2.65;;;;;;;10.96;63.95;95089.06;5073693;28;20217;-72
2022/09/21 06:54:30;;;;;;;3.33;2.60;;;;;;;11.00;64.11;95090.78;5073689;28;20201;-70
2022/09/21 06:56:57;;;;;;;3.53;2.50;;;;;;;11.04;63.78;95097.19;5073572;28;20207;-70
2022/09/21 06:59:25;;;;;;;2.88;2.58;;;;;;;11.08;63.82;95095.31;5074224;28;20185;-70
2022/09/21 07:01:54;;;;;;;2.95;2.70;;;;;;;11.15;63.42;95091.13;5073353;28;20205;-70
2022/09/21 07:04:23;;;;;;;2.83;2.40;;;;;;;11.22;63.51;95088.53;5074401;28;20593;-70
2022/09/21 07:06:50;;;;;;;4.45;3.40;;;;;;;11.27;63.44;95097.38;5074761;28;20190;-70
2022/09/21 07:09:17;;;;;;;3.17;2.80;;;;;;;11.28;62.68;95093.44;5073375;28;20208;-73
2022/09/21 07:11:43;;;;;;;2.85;2.63;;;;;;;11.35;63.22;95097.53;5075668;28;20220;-70
2022/09/21 07:14:10;;;;;;;3.20;2.83;;;;;;;11.43;63.59;95094.59;5076742;28;20668;-70
2022/09/21 07:16:39;;;;;;;4.03;3.20;;;;;;;11.47;63.03;95089.94;5076875;28;20542;-70
2022/09/21 07:19:06;;;;;;;2.30;2.10;;;;;;;11.49;62.41;95101.44;5078075;28;20536;-70
2022/09/21 07:21:32;;;;;;;2.38;2.17;;;;;;;11.50;62.46;95099.50;5078044;28;20189;-70
2022/09/21 07:24:00;;;;;;;2.63;1.95;;;;;;;11.55;62.95;95093.72;5077112;28;20196;-70
2022/09/21 07:26:27;;;;;;;2.78;2.10;;;;;;;11.61;63.50;95099.75;5076893;28;20188;-70
2022/09/21 07:28:54;;;;;;;2.38;2.10;;;;;;;11.62;62.89;95096.63;5077981;28;20619;-70
2022/09/21 07:31:21;;;;;;;2.60;2.00;;;;;;;11.63;62.28;95100.19;5077680;28;20201;-70
2022/09/21 07:33:49;;;;;;;2.53;2.13;;;;;;;11.63;61.43;95105.72;5077744;28;20227;-70
2022/09/21 07:36:16;;;;;;;2.53;2.13;;;;;;;11.61;61.74;95103.31;5076764;28;20565;-69
2022/09/21 07:38:44;;;;;;;2.72;2.53;;;;;;;11.63;61.71;95108.50;5076641;28;20268;-70
2022/09/21 07:41:12;;;;;;;2.58;2.17;;;;;;;11.64;61.89;95101.78;5077222;28;20193;-70
2022/09/21 07:43:39;;;;;;;2.72;2.13;;;;;;;11.65;61.55;95098.66;5076324;28;20668;-70
2022/09/21 07:46:06;;;;;;;2.00;1.90;;;;;;;11.66;61.60;95108.56;5076781;28;20194;-70
2022/09/21 07:48:33;;;;;;;2.55;2.20;;;;;;;11.71;62.01;95094.47;5076227;28;20208;-71
2022/09/21 07:51:06;;;;;;;2.40;2.20;;;;;;;11.76;61.50;95102.50;5076589;28;20203;-70
2022/09/21 07:53:33;;;;;;;2.03;1.92;;;;;;;11.81;61.34;95101.41;5076184;28;20213;-70
2022/09/21 07:56:03;;;;;;;2.55;2.30;;;;;;;11.85;61.22;95099.56;5076408;28;20197;-70
2022/09/21 08:01:14;;;;;;;2.50;2.30;;;;;;;11.95;60.65;95096.25;5076626;28;20193;-70
2022/09/21 08:03:41;;;;;;;3.53;2.00;;;;;;;11.94;60.16;95102.13;5076322;28;20204;-70
2022/09/21 08:06:09;;;;;;;3.42;2.10;;;;;;;11.95;60.11;95096.25;5075835;28;20201;-70
2022/09/21 08:08:36;;;;;;;4.05;2.15;;;;;;;11.97;60.34;95101.41;5075726;28;20632;-71
2022/09/21 08:11:04;;;;;;;4.07;2.70;;;;;;;12.01;60.11;95092.00;5076143;28;20212;-70
2022/09/21 08:13:30;;;;;;;4.80;2.90;;;;;;;12.08;60.36;95093.34;5076832;28;20204;-70
2022/09/21 08:15:58;;;;;;;4.10;2.78;;;;;;;12.14;60.13;95105.72;5076991;28;20216;-69
2022/09/21 08:18:25;;;;;;;2.78;2.28;;;;;;;12.20;59.53;95101.50;5076856;28;20185;-70
2022/09/21 08:20:56;;;;;;;2.42;2.22;;;;;;;12.26;59.18;95100.03;5076866;28;20193;-70
2022/09/21 08:23:24;;;;;;;2.90;2.42;;;;;;;12.31;58.53;95094.25;5074948;28;20205;-70
2022/09/21 08:25:51;;;;;;;3.90;2.30;;;;;;;12.28;58.30;95090.22;5075927;28;20273;-70
2022/09/21 08:28:18;;;;;;;2.95;2.30;;;;;;;12.33;58.59;95091.09;5076390;28;20184;-70
2022/09/21 08:30:45;;;;;;;2.08;1.80;;;;;;;12.36;58.29;95082.88;5076852;28;20228;-70
2022/09/21 08:33:13;;;;;;;2.00;1.80;;;;;;;12.44;59.47;95079.09;5076626;28;20212;-70
2022/09/21 08:35:40;;;;;;;2.47;1.90;;;;;;;12.52;58.22;95080.03;5076709;28;20201;-70
2022/09/21 08:38:06;;;;;;;1.85;1.75;;;;;;;12.59;58.33;95073.84;5076461;28;20586;-70
2022/09/21 08:40:34;;;;;;;1.77;1.67;;;;;;;12.64;57.71;95077.13;5075505;28;20216;-70
2022/09/21 08:43:04;;;;;;;2.50;2.30;;;;;;;12.71;57.26;95082.00;5075465;28;20196;-70
2022/09/21 08:45:33;;;;;;;2.10;1.85;;;;;;;12.74;57.24;95078.47;5075682;28;20223;-70
2022/09/21 08:48:02;;;;;;;2.28;2.00;;;;;;;12.75;57.15;95082.88;5075961;28;20188;-70
2022/09/21 08:50:33;;;;;;;2.72;1.80;;;;;;;12.71;57.03;95074.50;5075507;28;20208;-70
2022/09/21 08:53:06;;;;;;;1.60;1.50;;;;;;;12.73;57.40;95068.56;5076344;28;20212;-70
2022/09/21 08:55:35;;;;;;;4.28;1.88;;;;;;;12.76;57.31;95065.09;5076007;28;20212;-70
2022/09/21 08:58:01;;;;;;;3.55;2.40;;;;;;;12.80;57.41;95068.72;5076076;28;20201;-71
2022/09/21 09:00:33;;;;;;;2.10;2.00;;;;;;;12.83;57.24;95059.69;5075128;28;20193;-70
2022/09/21 09:03:24;;;;;;;1.80;1.70;;;;;;;12.85;56.71;95053.75;5076063;28;20196;-70
2022/09/21 09:05:55;;;;;;;3.13;1.90;;;;;;;12.90;56.86;95056.25;5076075;28;20197;-70
2022/09/21 09:08:54;;;;;;;3.03;2.03;;;;;;;12.95;57.01;95056.72;5076015;28;20188;-70
2022/09/21 09:11:41;;;;;;;3.28;1.98;;;;;;;12.97;56.36;95056.38;5074763;28;20196;-70
2022/09/21 09:14:30;;;;;;;3.53;2.80;;;;;;;12.97;55.19;95056.38;5075718;28;20239;-70
2022/09/21 09:17:09;;;;;;;2.45;2.20;;;;;;;12.98;55.26;95055.19;5037755;28;20223;-70
2022/09/21 09:19:41;;;;;;;2.80;1.90;;;;;;;13.01;55.08;95049.72;5075683;28;20185;-70
2022/09/21 09:22:12;;;;;;;1.77;1.67;;;;;;;13.06;54.06;95040.31;5074268;28;20204;-70
2022/09/21 09:24:42;;;;;;;1.75;1.65;;;;;;;13.08;54.48;95039.94;5075919;28;20230;-70
2022/09/21 09:27:16;;;;;;;2.03;1.92;;;;;;;13.13;55.06;95040.44;5075740;28;20189;-70
2022/09/21 09:29:48;;;;;;;2.03;1.80;;;;;;;13.17;54.32;95041.28;5074430;28;20197;-69
2022/09/21 09:32:16;;;;;;;2.03;1.92;;;;;;;13.18;53.49;95034.59;5074251;28;20236;-70
2022/09/21 09:34:45;;;;;;;1.80;1.70;;;;;;;13.20;53.12;95031.44;5074903;28;20201;-70
2022/09/21 09:37:14;;;;;;;1.73;1.63;;;;;;;13.27;53.62;95028.03;5074801;28;20208;-70
2022/09/21 09:39:41;;;;;;;1.65;1.55;;;;;;;13.35;54.09;95024.19;5075280;28;20196;-70
2022/09/21 09:42:22;;;;;;;1.67;1.58;;;;;;;13.42;53.14;95025.09;5075185;28;20224;-70
2022/09/21 09:45:00;;;;;;;1.58;1.48;;;;;;;13.46;52.97;95023.19;5075394;28;20192;-69
2022/09/21 09:47:36;;;;;;;1.60;1.50;;;;;;;13.57;53.42;95019.78;5074827;28;20181;-69
2022/09/21 09:50:08;;;;;;;1.60;1.50;;;;;;;13.67;52.78;95014.38;5074603;28;20201;-69
2022/09/21 09:52:35;;;;;;;1.63;1.52;;;;;;;13.66;51.98;95012.81;5074550;28;20205;-69
2022/09/21 09:55:14;;;;;;;1.75;1.45;;;;;;;13.60;51.86;95016.25;5075106;28;20192;-71
2022/09/21 09:57:42;;;;;;;1.70;1.60;;;;;;;13.59;52.60;95017.44;5074923;28;20651;-70
2022/09/21 10:00:15;;;;;;;1.70;1.60;;;;;;;13.62;52.48;95011.16;5074371;28;20197;-70
2022/09/21 10:02:49;;;;;;;1.73;1.50;;;;;;;13.65;52.34;95013.16;5074939;28;20177;-70
2022/09/21 10:05:22;;;;;;;1.83;1.67;;;;;;;13.67;50.68;95006.06;5075339;28;20260;-70
2022/09/21 10:07:49;;;;;;;2.17;1.80;;;;;;;13.80;50.66;95000.28;5075189;28;20181;-70
2022/09/21 10:10:35;;;;;;;1.50;1.40;;;;;;;13.83;49.17;94997.56;5074336;28;20193;-70
2022/09/21 10:13:17;;;;;;;1.15;1.15;;;;;;;13.85;49.48;94998.00;5074159;28;20213;-70
2022/09/21 10:15:48;;;;;;;1.63;1.20;;;;;;;14.02;50.32;94995.84;5073559;28;20236;-69
2022/09/21 10:18:19;;;;;;;1.48;1.38;;;;;;;14.25;49.28;94993.75;5074928;28;20205;-69
2022/09/21 10:20:54;;;;;;;1.35;1.25;;;;;;;14.46;48.72;94984.88;5075014;28;20268;-69
2022/09/21 10:23:22;;;;;;;1.80;1.40;;;;;;;14.68;47.69;94991.50;5075213;28;20180;-70
2022/09/21 10:25:54;;;;;;;1.63;1.30;;;;;;;14.88;47.13;94978.97;5074643;28;20525;-70
2022/09/21 10:28:23;;;;;;;1.60;1.50;;;;;;;15.04;44.99;94980.72;5074866;28;20189;-70
2022/09/21 10:30:50;;;;;;;1.70;1.60;;;;;;;15.13;45.31;94976.41;5074934;28;20213;-70
2022/09/21 10:33:19;;;;;;;1.50;1.40;;;;;;;15.25;45.83;94977.28;5074494;28;20262;-70
2022/09/21 10:35:51;;;;;;;1.63;1.38;;;;;;;15.40;44.09;94967.91;5073864;28;20231;-70
2022/09/21 10:38:20;;;;;;;1.80;1.20;;;;;;;15.37;44.35;94977.81;5073926;28;20200;-70
2022/09/21 10:40:47;;;;;;;1.58;1.42;;;;;;;15.22;45.20;94972.53;5074574;28;20192;-70
2022/09/21 10:43:26;;;;;;;1.90;1.42;;;;;;;15.05;45.40;94965.63;5073860;28;20212;-70
2022/09/21 10:45:54;;;;;;;1.40;1.30;;;;;;;14.95;45.37;94967.13;5075442;28;20207;-70
2022/09/21 10:48:22;;;;;;;1.60;1.40;;;;;;;15.00;45.80;94969.59;5078435;28;20197;-69
2022/09/21 10:50:51;;;;;;;1.83;1.73;;;;;;;15.23;45.02;94963.81;5077309;28;20204;-70
2022/09/21 10:53:23;;;;;;;1.88;1.67;;;;;;;15.39;44.47;94961.53;5077556;28;20221;-70
2022/09/21 10:55:53;;;;;;;2.08;1.88;;;;;;;15.46;44.49;94962.78;5078557;28;20204;-70
2022/09/21 10:58:20;;;;;;;1.98;1.70;;;;;;;15.52;44.53;94959.25;5077001;28;20194;-70
2022/09/21 11:00:50;;;;;;;2.20;1.35;;;;;;;15.73;43.88;94953.06;5077059;28;20217;-70
2022/09/21 11:03:38;;;;;;;1.55;1.45;;;;;;;15.93;43.61;94950.75;5077238;28;20213;-69
2022/09/21 11:06:09;;;;;;;1.98;1.40;;;;;;;15.99;42.54;94943.63;5077925;28;20250;-69
2022/09/21 11:08:38;;;;;;;1.40;1.30;;;;;;;16.07;42.16;94939.69;5077247;28;20193;-70
2022/09/21 11:11:17;;;;;;;1.90;1.40;;;;;;;16.13;42.43;94956.81;5077247;28;20203;-70
2022/09/21 11:13:48;;;;;;;2.22;1.33;;;;;;;16.24;41.48;94938.16;5077829;28;20245;-69
2022/09/21 11:16:22;;;;;;;1.35;1.25;;;;;;;16.39;40.79;94941.78;5077821;28;20193;-70
2022/09/21 11:18:54;;;;;;;3.00;1.30;;;;;;;16.37;40.49;94946.94;5078113;28;20192;-69
2022/09/21 11:21:29;;;;;;;1.30;1.20;;;;;;;16.44;42.16;94944.19;5077939;28;20197;-70
2022/09/21 11:24:03;;;;;;;1.00;1.00;;;;;;;16.55;41.54;94938.63;5077216;28;20196;-69
2022/09/21 11:26:35;;;;;;;2.80;1.20;;;;;;;16.57;42.58;94942.63;5076636;28;20201;-69
2022/09/21 11:29:07;;;;;;;2.95;1.40;;;;;;;16.41;40.69;94944.97;5076962;28;20205;-70
2022/09/21 11:31:54;;;;;;;2.80;1.60;;;;;;;16.04;40.27;94951.59;5076910;28;20301;-70
2022/09/21 11:34:29;;;;;;;1.77;1.48;;;;;;;15.75;40.83;94949.88;5076584;28;20711;-69
2022/09/21 11:37:08;;;;;;;1.80;1.50;;;;;;;15.53;42.49;94952.50;5077721;28;20197;-69
2022/09/21 11:39:45;;;;;;;2.15;1.60;;;;;;;15.34;42.87;94950.00;5076731;28;20192;-70
2022/09/21 11:42:26;;;;;;;3.70;2.20;;;;;;;15.20;43.49;94942.34;5077378;28;20244;-69
2022/09/21 11:44:55;;;;;;;2.13;1.65;;;;;;;15.08;43.12;94948.22;5077416;28;20181;-70
2022/09/21 11:47:38;;;;;;;2.25;2.05;;;;;;;14.99;44.74;94947.72;5077288;28;20186;-70
2022/09/21 11:50:27;;;;;;;1.50;1.40;;;;;;;14.87;45.44;94949.63;5076294;28;20209;-69
2022/09/21 11:53:05;;;;;;;1.38;1.35;;;;;;;14.84;45.90;94947.59;5076461;28;20270;-70
2022/09/21 11:55:48;;;;;;;4.03;1.50;;;;;;;14.81;45.82;94953.91;5076582;28;20625;-69